Time;durP1;ratioP1;P1;durP2;ratioP2;P2;SDS_P1;SDS_P2;PMS_P1;PMS_P2;Temp;Humidity;BMP_temperature;BMP_pressure;BME280_temperature;BME280_humidity;BME280_pressure;Samples;Min_cycle;Max_cycle;Signal;HPM_P1;HPM_P2
2022/07/05 00:00:40;;;;;;;2.53;2.33;;;;;;;;;;5011255;28;20580;-55
2022/07/05 00:03:06;;;;;;;2.10;2.00;;;;;;;;;;5012097;28;20411;-55
2022/07/05 00:05:32;;;;;;;2.53;2.37;;;;;;;;;;5009542;28;20954;-55
2022/07/05 00:07:58;;;;;;;3.63;2.07;;;;;;;;;;5012244;28;20505;-55
2022/07/05 00:10:25;;;;;;;2.50;2.27;;;;;;;;;;5011745;28;20479;-56
2022/07/05 00:12:51;;;;;;;3.37;2.30;;;;;;;;;;5012313;28;20427;-56
2022/07/05 00:15:18;;;;;;;2.07;1.97;;;;;;;;;;5012476;28;20746;-55
2022/07/05 00:17:44;;;;;;;3.50;2.13;;;;;;;;;;5012222;28;20529;-55
2022/07/05 00:20:10;;;;;;;2.00;1.90;;;;;;;;;;5011778;28;20472;-59
2022/07/05 00:22:36;;;;;;;2.10;2.00;;;;;;;;;;5012068;28;20410;-56
2022/07/05 00:25:02;;;;;;;2.90;2.70;;;;;;;;;;5012008;28;20378;-56
2022/07/05 00:27:28;;;;;;;2.60;2.40;;;;;;;;;;5012081;28;20398;-57
2022/07/05 00:29:54;;;;;;;1.87;1.77;;;;;;;;;;5011944;28;20385;-57
2022/07/05 00:32:21;;;;;;;2.80;2.10;;;;;;;;;;5011928;28;20479;-55
2022/07/05 00:34:47;;;;;;;2.40;2.20;;;;;;;;;;5012165;28;20661;-55
2022/07/05 00:37:13;;;;;;;2.73;2.53;;;;;;;;;;5011939;28;20429;-55
2022/07/05 00:39:38;;;;;;;2.47;2.23;;;;;;;;;;5011672;28;20512;-55
2022/07/05 00:42:05;;;;;;;2.53;2.33;;;;;;;;;;5012492;28;20391;-58
2022/07/05 00:44:34;;;;;;;2.17;2.07;;;;;;;;;;5011904;28;20383;-58
2022/07/05 00:47:00;;;;;;;2.63;2.43;;;;;;;;;;5011539;28;20405;-58
2022/07/05 00:49:26;;;;;;;2.40;2.30;;;;;;;;;;5011904;28;20409;-58
2022/07/05 00:51:53;;;;;;;2.90;2.50;;;;;;;;;;5011515;28;20910;-58
2022/07/05 00:54:19;;;;;;;2.40;2.20;;;;;;;;;;5011753;28;20382;-57
2022/07/05 00:56:45;;;;;;;5.50;2.60;;;;;;;;;;5011798;28;20513;-58
2022/07/05 00:59:11;;;;;;;2.90;2.70;;;;;;;;;;5011686;28;20464;-58
2022/07/05 01:01:37;;;;;;;2.50;2.33;;;;;;;;;;5011095;28;20808;-58
2022/07/05 01:04:03;;;;;;;3.23;2.47;;;;;;;;;;5011363;28;20489;-58
2022/07/05 01:06:29;;;;;;;2.60;2.40;;;;;;;;;;5011310;28;20408;-58
2022/07/05 01:08:55;;;;;;;2.60;2.30;;;;;;;;;;5010924;28;20756;-58
2022/07/05 01:11:21;;;;;;;3.40;2.43;;;;;;;;;;5011391;28;20907;-58
2022/07/05 01:13:47;;;;;;;2.70;2.20;;;;;;;;;;5011581;28;20419;-58
2022/07/05 01:16:13;;;;;;;10.03;2.90;;;;;;;;;;5011780;28;20721;-58
2022/07/05 01:18:39;;;;;;;2.10;2.00;;;;;;;;;;5011804;28;20518;-57
2022/07/05 01:21:05;;;;;;;5.03;2.87;;;;;;;;;;5011341;28;20979;-58
2022/07/05 01:23:31;;;;;;;2.37;2.13;;;;;;;;;;5011703;28;20378;-58
2022/07/05 01:26:00;;;;;;;2.60;2.40;;;;;;;;;;5011757;28;20473;-58
2022/07/05 01:28:26;;;;;;;2.60;2.40;;;;;;;;;;5011685;28;20481;-57
2022/07/05 01:30:52;;;;;;;2.70;2.50;;;;;;;;;;5011380;28;20894;-57
2022/07/05 01:33:18;;;;;;;2.40;2.30;;;;;;;;;;5011680;28;20382;-58
2022/07/05 01:35:45;;;;;;;3.20;2.37;;;;;;;;;;5011502;28;20429;-58
2022/07/05 01:38:11;;;;;;;3.33;2.97;;;;;;;;;;5011409;28;20500;-58
2022/07/05 01:40:37;;;;;;;3.30;3.00;;;;;;;;;;5011099;28;20458;-57
2022/07/05 01:43:03;;;;;;;5.03;2.60;;;;;;;;;;5011490;28;20403;-57
2022/07/05 01:45:42;;;;;;;4.67;2.97;;;;;;;;;;5014989;28;20870;-58
2022/07/05 01:48:09;;;;;;;2.70;2.50;;;;;;;;;;5015060;28;20796;-58
2022/07/05 01:50:39;;;;;;;3.27;2.80;;;;;;;;;;5014743;28;20386;-58
2022/07/05 01:53:05;;;;;;;3.00;2.80;;;;;;;;;;5015146;28;20378;-58
2022/07/05 01:55:31;;;;;;;3.10;2.90;;;;;;;;;;5015102;28;20516;-58
2022/07/05 01:57:58;;;;;;;8.40;2.90;;;;;;;;;;5014912;28;20452;-58
2022/07/05 02:00:24;;;;;;;5.50;2.43;;;;;;;;;;5014481;28;20429;-58
2022/07/05 02:02:50;;;;;;;2.80;2.60;;;;;;;;;;5014768;28;20720;-58
2022/07/05 02:05:16;;;;;;;2.30;2.20;;;;;;;;;;5015088;28;20818;-58
2022/07/05 02:07:49;;;;;;;3.83;2.70;;;;;;;;;;5014787;28;20422;-58
2022/07/05 02:10:15;;;;;;;3.37;2.43;;;;;;;;;;5014417;28;20832;-58
2022/07/05 02:12:41;;;;;;;3.97;3.10;;;;;;;;;;5014605;28;20486;-58
2022/07/05 02:15:07;;;;;;;8.80;3.00;;;;;;;;;;5014658;28;20441;-58
2022/07/05 02:17:33;;;;;;;2.90;2.63;;;;;;;;;;5014385;28;20967;-58
2022/07/05 02:19:59;;;;;;;3.17;2.63;;;;;;;;;;5014503;28;20455;-58
2022/07/05 02:22:25;;;;;;;2.97;2.73;;;;;;;;;;5014230;28;20402;-57
2022/07/05 02:24:51;;;;;;;3.50;3.20;;;;;;;;;;5014444;28;20431;-57
2022/07/05 02:27:18;;;;;;;2.97;2.77;;;;;;;;;;5014290;28;20411;-58
2022/07/05 02:29:44;;;;;;;3.10;2.90;;;;;;;;;;5014292;28;20390;-58
2022/07/05 02:32:10;;;;;;;3.17;2.97;;;;;;;;;;5013993;28;20382;-58
2022/07/05 02:34:35;;;;;;;3.13;2.93;;;;;;;;;;5014221;28;20389;-58
2022/07/05 02:37:01;;;;;;;2.83;2.67;;;;;;;;;;5014083;28;20427;-58
2022/07/05 02:39:27;;;;;;;7.20;2.83;;;;;;;;;;5014084;28;20433;-57
2022/07/05 02:41:53;;;;;;;3.27;3.07;;;;;;;;;;5013825;28;20413;-58
2022/07/05 02:44:19;;;;;;;3.40;3.10;;;;;;;;;;5014071;28;20439;-57
2022/07/05 02:46:45;;;;;;;3.90;3.60;;;;;;;;;;5013753;28;20402;-58
2022/07/05 02:49:11;;;;;;;4.67;3.43;;;;;;;;;;5013896;28;20382;-57
2022/07/05 02:51:37;;;;;;;3.57;3.30;;;;;;;;;;5013650;28;20443;-58
2022/07/05 02:54:03;;;;;;;3.53;3.20;;;;;;;;;;5013966;28;20541;-58
2022/07/05 02:56:29;;;;;;;3.67;3.37;;;;;;;;;;5012683;28;20449;-58
2022/07/05 02:58:55;;;;;;;3.50;3.20;;;;;;;;;;5013783;28;20403;-57
2022/07/05 03:01:21;;;;;;;3.83;3.53;;;;;;;;;;5013437;28;20482;-58
2022/07/05 03:03:47;;;;;;;3.40;3.20;;;;;;;;;;5013670;28;20461;-58
2022/07/05 03:06:13;;;;;;;4.00;3.70;;;;;;;;;;5013541;28;20924;-58
2022/07/05 03:08:40;;;;;;;5.47;3.73;;;;;;;;;;5013893;28;20893;-58
2022/07/05 03:11:06;;;;;;;4.40;4.00;;;;;;;;;;5013267;28;20418;-58
2022/07/05 03:13:32;;;;;;;4.27;3.83;;;;;;;;;;5013506;28;20411;-57
2022/07/05 03:15:58;;;;;;;4.00;3.60;;;;;;;;;;5013669;28;20459;-57
2022/07/05 03:18:24;;;;;;;3.73;3.20;;;;;;;;;;5013424;28;21008;-58
2022/07/05 03:20:50;;;;;;;6.77;4.20;;;;;;;;;;5013021;28;20462;-58
2022/07/05 03:23:16;;;;;;;3.87;3.60;;;;;;;;;;5013397;28;20871;-57
2022/07/05 03:25:42;;;;;;;5.20;3.30;;;;;;;;;;5013181;28;20439;-58
2022/07/05 03:28:08;;;;;;;6.93;4.60;;;;;;;;;;5013194;28;20400;-58
2022/07/05 03:30:34;;;;;;;4.67;4.20;;;;;;;;;;5012815;28;20410;-58
2022/07/05 03:33:00;;;;;;;4.50;4.10;;;;;;;;;;5013130;28;20418;-58
2022/07/05 03:35:26;;;;;;;3.77;3.43;;;;;;;;;;5013105;28;20488;-58
2022/07/05 03:37:52;;;;;;;4.17;3.87;;;;;;;;;;5012845;28;20454;-57
2022/07/05 03:40:18;;;;;;;4.03;3.73;;;;;;;;;;5012678;28;20460;-58
2022/07/05 03:42:44;;;;;;;3.47;3.23;;;;;;;;;;5012800;28;20469;-58
2022/07/05 03:45:10;;;;;;;3.83;3.53;;;;;;;;;;5012881;28;20406;-58
2022/07/05 03:47:36;;;;;;;6.43;3.63;;;;;;;;;;5012914;28;20726;-58
2022/07/05 03:50:03;;;;;;;3.60;3.40;;;;;;;;;;5012848;28;20408;-58
2022/07/05 03:52:29;;;;;;;4.13;3.40;;;;;;;;;;5012790;28;20482;-58
2022/07/05 03:54:55;;;;;;;4.30;3.90;;;;;;;;;;5012683;28;20500;-57
2022/07/05 03:57:21;;;;;;;3.40;3.10;;;;;;;;;;5012669;28;20425;-57
2022/07/05 03:59:47;;;;;;;3.70;3.40;;;;;;;;;;5012423;28;20436;-58
2022/07/05 04:02:13;;;;;;;3.43;3.23;;;;;;;;;;5012419;28;20410;-58
2022/07/05 04:04:39;;;;;;;4.47;4.07;;;;;;;;;;5012622;28;20381;-58
2022/07/05 04:07:05;;;;;;;4.10;3.80;;;;;;;;;;5012253;28;20400;-58
2022/07/05 04:09:31;;;;;;;3.93;3.70;;;;;;;;;;5012447;28;20413;-57
2022/07/05 04:11:57;;;;;;;4.57;3.70;;;;;;;;;;5012232;28;20406;-58
2022/07/05 04:14:23;;;;;;;3.77;3.47;;;;;;;;;;5012487;28;21068;-57
2022/07/05 04:16:49;;;;;;;3.43;3.13;;;;;;;;;;5012338;28;20423;-57
2022/07/05 04:19:16;;;;;;;3.87;3.50;;;;;;;;;;5012226;28;20406;-57
2022/07/05 04:21:42;;;;;;;8.37;4.27;;;;;;;;;;5012472;28;20765;-58
2022/07/05 04:24:08;;;;;;;3.90;3.60;;;;;;;;;;5012671;28;20407;-57
2022/07/05 04:26:34;;;;;;;4.83;3.80;;;;;;;;;;5012058;28;20402;-57
2022/07/05 04:29:00;;;;;;;4.00;3.70;;;;;;;;;;5012445;28;20500;-57
2022/07/05 04:31:26;;;;;;;4.57;4.17;;;;;;;;;;5011893;28;20418;-57
2022/07/05 04:33:52;;;;;;;5.60;3.80;;;;;;;;;;5012160;28;20411;-57
2022/07/05 04:36:18;;;;;;;6.10;4.50;;;;;;;;;;5012542;28;20731;-58
2022/07/05 04:38:44;;;;;;;4.67;4.27;;;;;;;;;;5011980;28;20401;-56
2022/07/05 04:41:10;;;;;;;4.87;4.30;;;;;;;;;;5011569;28;20434;-58
2022/07/05 04:43:36;;;;;;;4.53;4.23;;;;;;;;;;5012261;28;20478;-57
2022/07/05 04:46:02;;;;;;;4.73;4.33;;;;;;;;;;5012243;28;20929;-57
2022/07/05 04:48:27;;;;;;;7.63;5.10;;;;;;;;;;5012015;28;20419;-56
2022/07/05 04:50:53;;;;;;;7.60;4.73;;;;;;;;;;5011696;28;20469;-57
2022/07/05 04:53:19;;;;;;;7.67;4.40;;;;;;;;;;5011976;28;20393;-57
2022/07/05 04:55:45;;;;;;;8.30;4.73;;;;;;;;;;5011857;28;20819;-58
2022/07/05 04:58:11;;;;;;;6.20;4.53;;;;;;;;;;5012005;28;20479;-58
2022/07/05 05:00:37;;;;;;;4.97;4.50;;;;;;;;;;5011565;28;20459;-58
2022/07/05 05:03:03;;;;;;;4.40;4.00;;;;;;;;;;5012083;28;20402;-58
2022/07/05 05:05:29;;;;;;;9.03;5.30;;;;;;;;;;5012019;28;20410;-57
2022/07/05 05:07:55;;;;;;;6.57;4.47;;;;;;;;;;5011765;28;20403;-58
2022/07/05 05:10:21;;;;;;;16.53;4.30;;;;;;;;;;5011924;28;20373;-57
2022/07/05 05:12:48;;;;;;;7.93;4.23;;;;;;;;;;5011834;28;20915;-58
2022/07/05 05:15:14;;;;;;;5.70;4.03;;;;;;;;;;5011905;28;20461;-57
2022/07/05 05:17:41;;;;;;;4.50;4.10;;;;;;;;;;5011997;28;20396;-57
2022/07/05 05:20:10;;;;;;;8.73;4.07;;;;;;;;;;5014659;28;20458;-58
2022/07/05 05:22:36;;;;;;;3.93;3.63;;;;;;;;;;5015508;28;20381;-58
2022/07/05 05:25:02;;;;;;;5.10;4.43;;;;;;;;;;5015423;28;20439;-58
2022/07/05 05:27:28;;;;;;;4.33;3.90;;;;;;;;;;5015816;28;20397;-58
2022/07/05 05:29:54;;;;;;;5.70;4.40;;;;;;;;;;5015335;28;20403;-57
2022/07/05 05:32:20;;;;;;;5.63;5.10;;;;;;;;;;5015174;28;20435;-58
2022/07/05 05:34:46;;;;;;;4.70;4.30;;;;;;;;;;5015324;28;20493;-57
2022/07/05 05:37:12;;;;;;;7.30;4.70;;;;;;;;;;5015087;28;20414;-58
2022/07/05 05:39:38;;;;;;;7.83;7.20;;;;;;;;;;5015121;28;20453;-58
2022/07/05 05:42:04;;;;;;;5.90;4.73;;;;;;;;;;5015026;28;20385;-58
2022/07/05 05:44:30;;;;;;;5.90;4.50;;;;;;;;;;5015191;28;20749;-58
2022/07/05 05:46:56;;;;;;;5.20;4.67;;;;;;;;;;5015156;28;20401;-57
2022/07/05 05:49:22;;;;;;;5.53;4.20;;;;;;;;;;5015070;28;20923;-58
2022/07/05 05:51:48;;;;;;;4.80;4.30;;;;;;;;;;5014833;28;20378;-58
2022/07/05 05:54:14;;;;;;;4.90;4.37;;;;;;;;;;5015005;28;20874;-58
2022/07/05 05:56:40;;;;;;;8.40;3.80;;;;;;;;;;5015024;28;20463;-57
2022/07/05 05:59:06;;;;;;;4.20;3.80;;;;;;;;;;5014774;28;20390;-58
2022/07/05 06:01:32;;;;;;;6.90;3.93;;;;;;;;;;5014605;28;20437;-58
2022/07/05 06:03:58;;;;;;;6.30;3.70;;;;;;;;;;5014055;28;20457;-58
2022/07/05 06:06:24;;;;;;;6.30;4.20;;;;;;;;;;5014258;28;20962;-58
2022/07/05 06:08:50;;;;;;;3.67;3.33;;;;;;;;;;5013961;28;20404;-58
2022/07/05 06:11:16;;;;;;;4.10;3.80;;;;;;;;;;5013940;28;20397;-58
2022/07/05 06:13:42;;;;;;;4.23;3.77;;;;;;;;;;5014028;28;20858;-58
2022/07/05 06:16:09;;;;;;;4.90;4.43;;;;;;;;;;5014097;28;20403;-58
2022/07/05 06:18:35;;;;;;;4.47;3.57;;;;;;;;;;5013899;28;20399;-58
2022/07/05 06:21:01;;;;;;;5.03;3.60;;;;;;;;;;5013466;28;20459;-58
2022/07/05 06:23:27;;;;;;;3.80;3.50;;;;;;;;;;5010273;28;20785;-58
2022/07/05 06:25:53;;;;;;;3.50;3.20;;;;;;;;;;5012063;28;20427;-58
2022/07/05 06:28:19;;;;;;;3.43;3.13;;;;;;;;;;5014226;28;20420;-58
2022/07/05 06:30:45;;;;;;;3.57;3.23;;;;;;;;;;5013921;28;20893;-58
2022/07/05 06:33:11;;;;;;;3.27;2.97;;;;;;;;;;5014267;28;20405;-58
2022/07/05 06:35:37;;;;;;;4.30;3.60;;;;;;;;;;5014070;28;20388;-58
2022/07/05 06:38:07;;;;;;;6.57;3.30;;;;;;;;;;5013845;28;20436;-58
2022/07/05 06:40:34;;;;;;;10.83;2.63;;;;;;;;;;5014059;28;20906;-58
2022/07/05 06:43:01;;;;;;;6.90;3.33;;;;;;;;;;4995410;28;20402;-58
2022/07/05 06:45:27;;;;;;;5.47;3.60;;;;;;;;;;4994606;28;20436;-58
2022/07/05 06:47:56;;;;;;;5.73;2.83;;;;;;;;;;4994318;28;20519;-58
2022/07/05 06:50:22;;;;;;;3.40;2.97;;;;;;;;;;4993767;28;20409;-58
2022/07/05 06:52:48;;;;;;;4.93;3.80;;;;;;;;;;4994250;28;20839;-58
2022/07/05 06:55:14;;;;;;;5.37;3.10;;;;;;;;;;4993363;28;20393;-58
2022/07/05 06:57:40;;;;;;;4.50;2.73;;;;;;;;;;4994220;28;20448;-58
2022/07/05 07:00:06;;;;;;;3.23;2.57;;;;;;;;;;4993954;28;20460;-58
2022/07/05 07:02:32;;;;;;;4.27;3.97;;;;;;;;;;4994205;28;20405;-58
2022/07/05 07:04:58;;;;;;;3.43;3.20;;;;;;;;;;4994073;28;20411;-58
2022/07/05 07:10:09;;;;;;;3.73;2.90;;;;;;;;;;5000905;28;20433;-58
2022/07/05 07:12:35;;;;;;;2.93;2.57;;;;;;;;;;5013229;28;20410;-58
2022/07/05 07:15:01;;;;;;;2.40;2.20;;;;;;;;;;5013426;28;20411;-58
2022/07/05 07:17:27;;;;;;;3.60;2.40;;;;;;;;;;5013251;28;20400;-58
2022/07/05 07:19:53;;;;;;;3.10;2.33;;;;;;;;;;5013219;28;20461;-58
2022/07/05 07:22:19;;;;;;;4.57;2.37;;;;;;;;;;5013247;28;20398;-57
2022/07/05 07:24:45;;;;;;;3.50;2.50;;;;;;;;;;5013296;28;20399;-56
2022/07/05 07:27:11;;;;;;;2.03;1.80;;;;;;;;;;5013195;28;20944;-58
2022/07/05 07:29:38;;;;;;;2.20;1.87;;;;;;;;;;5013192;28;20404;-58
2022/07/05 07:32:05;;;;;;;3.10;1.93;;;;;;;;;;5012774;28;20399;-58
2022/07/05 07:34:31;;;;;;;2.90;2.37;;;;;;;;;;5012614;28;20425;-58
2022/07/05 07:36:57;;;;;;;3.33;2.83;;;;;;;;;;5012844;28;20517;-58
2022/07/05 07:39:23;;;;;;;5.07;2.93;;;;;;;;;;5010961;28;20497;-58
2022/07/05 07:41:50;;;;;;;2.00;1.90;;;;;;;;;;5011156;28;20448;-58
2022/07/05 07:44:16;;;;;;;2.43;2.30;;;;;;;;;;5012418;28;20431;-58
2022/07/05 07:46:42;;;;;;;6.27;2.37;;;;;;;;;;5012512;28;20497;-58
2022/07/05 07:49:09;;;;;;;2.53;1.80;;;;;;;;;;5012391;28;20415;-58
2022/07/05 07:51:35;;;;;;;6.23;2.70;;;;;;;;;;5012274;28;20400;-58
2022/07/05 07:54:01;;;;;;;2.23;2.00;;;;;;;;;;5012563;28;20518;-57
2022/07/05 07:56:27;;;;;;;7.53;2.77;;;;;;;;;;5012090;28;20594;-58
2022/07/05 07:58:53;;;;;;;2.23;2.03;;;;;;;;;;5012225;28;20959;-58
2022/07/05 08:01:19;;;;;;;3.53;2.03;;;;;;;;;;5011610;28;20500;-58
2022/07/05 08:03:45;;;;;;;2.60;2.23;;;;;;;;;;5012176;28;20484;-58
2022/07/05 08:06:13;;;;;;;5.10;2.43;;;;;;;;;;5012206;28;20414;-58
2022/07/05 08:08:40;;;;;;;3.00;2.60;;;;;;;;;;5011762;28;20467;-58
2022/07/05 08:11:07;;;;;;;3.00;2.53;;;;;;;;;;5011581;28;20426;-58
2022/07/05 08:13:33;;;;;;;3.17;1.90;;;;;;;;;;5012201;28;20421;-58
2022/07/05 08:15:59;;;;;;;2.77;2.13;;;;;;;;;;5012277;28;20475;-58
2022/07/05 08:23:55;;;;;;;2.00;1.90;;;;;;;;;;5011972;28;20426;-59
2022/07/05 08:26:21;;;;;;;3.70;2.10;;;;;;;;;;5012015;28;20481;-58
2022/07/05 08:28:47;;;;;;;3.43;1.97;;;;;;;;;;5011955;28;20421;-58
2022/07/05 08:31:13;;;;;;;4.90;2.33;;;;;;;;;;5011357;28;20408;-58
2022/07/05 08:33:39;;;;;;;2.30;2.10;;;;;;;;;;5010667;28;20498;-58
2022/07/05 08:36:06;;;;;;;3.97;2.00;;;;;;;;;;5011562;28;20505;-58
2022/07/05 08:38:32;;;;;;;1.83;1.40;;;;;;;;;;5011697;28;20458;-58
2022/07/05 08:40:58;;;;;;;6.40;1.90;;;;;;;;;;5011067;28;20458;-59
2022/07/05 08:43:25;;;;;;;3.13;2.03;;;;;;;;;;5012057;28;20403;-59
2022/07/05 08:45:53;;;;;;;2.90;1.57;;;;;;;;;;5011938;28;20465;-58
2022/07/05 08:48:19;;;;;;;1.90;1.70;;;;;;;;;;5011400;28;20433;-59
2022/07/05 08:50:48;;;;;;;1.73;1.63;;;;;;;;;;5011580;28;20894;-59
2022/07/05 08:53:15;;;;;;;1.73;1.63;;;;;;;;;;5011779;28;20443;-59
2022/07/05 08:55:41;;;;;;;2.10;1.90;;;;;;;;;;5015974;28;20407;-59
2022/07/05 08:58:07;;;;;;;4.70;1.67;;;;;;;;;;5015395;28;20826;-59
2022/07/05 09:00:33;;;;;;;6.40;2.30;;;;;;;;;;5015563;28;20450;-59
2022/07/05 09:03:00;;;;;;;2.40;2.13;;;;;;;;;;5015344;28;20415;-59
2022/07/05 09:05:26;;;;;;;1.60;1.50;;;;;;;;;;5015494;28;20792;-59
2022/07/05 09:07:59;;;;;;;3.30;1.93;;;;;;;;;;5015431;28;20446;-58
2022/07/05 09:10:31;;;;;;;2.70;2.00;;;;;;;;;;5007584;28;20421;-58
2022/07/05 09:12:57;;;;;;;4.77;2.80;;;;;;;;;;5015707;28;20458;-58
2022/07/05 09:15:24;;;;;;;5.60;3.57;;;;;;;;;;5015315;28;20964;-59
2022/07/05 09:17:50;;;;;;;2.03;1.87;;;;;;;;;;5015299;28;20439;-58
2022/07/05 09:20:19;;;;;;;4.60;4.17;;;;;;;;;;5014971;28;20453;-58
2022/07/05 09:22:46;;;;;;;1.97;1.87;;;;;;;;;;5015134;28;20922;-58
2022/07/05 09:25:27;;;;;;;3.50;2.90;;;;;;;;;;5015342;28;20429;-58
2022/07/05 09:27:53;;;;;;;3.83;2.70;;;;;;;;;;5014345;28;20453;-58
2022/07/05 09:30:25;;;;;;;3.13;2.93;;;;;;;;;;5029702;28;20776;-58
2022/07/05 09:33:08;;;;;;;2.50;2.30;;;;;;;;;;5015230;28;20501;-58
2022/07/05 09:35:35;;;;;;;3.20;2.80;;;;;;;;;;5014685;28;20426;-58
2022/07/05 09:38:04;;;;;;;2.50;2.30;;;;;;;;;;5007577;28;20981;-58
2022/07/05 09:40:33;;;;;;;2.60;2.40;;;;;;;;;;5014677;28;20837;-59
2022/07/05 09:43:12;;;;;;;4.83;2.43;;;;;;;;;;5015066;28;20430;-59
2022/07/05 09:45:38;;;;;;;4.97;2.33;;;;;;;;;;5015140;28;20398;-59
2022/07/05 09:48:07;;;;;;;2.50;2.27;;;;;;;;;;5014384;28;20478;-59
2022/07/05 09:50:34;;;;;;;2.17;2.07;;;;;;;;;;5009496;28;20443;-59
2022/07/05 09:53:00;;;;;;;4.33;1.80;;;;;;;;;;5015413;28;20423;-56
2022/07/05 09:55:26;;;;;;;1.73;1.30;;;;;;;;;;5014738;28;20418;-56
2022/07/05 09:57:53;;;;;;;2.60;1.77;;;;;;;;;;5013974;28;20950;-57
2022/07/05 10:00:21;;;;;;;3.03;1.80;;;;;;;;;;5013943;28;20458;-55
2022/07/05 10:03:00;;;;;;;3.90;3.53;;;;;;;;;;5013787;28;20422;-56
2022/07/05 10:05:27;;;;;;;6.33;2.90;;;;;;;;;;5010039;28;20417;-58
2022/07/05 10:08:02;;;;;;;2.27;1.53;;;;;;;;;;5014234;28;20431;-57
2022/07/05 10:10:29;;;;;;;2.07;1.87;;;;;;;;;;5013498;28;20926;-55
2022/07/05 10:12:59;;;;;;;2.30;1.77;;;;;;;;;;5014177;28;20426;-55
2022/07/05 10:15:30;;;;;;;2.40;2.20;;;;;;;;;;5014349;28;20409;-55
2022/07/05 10:18:02;;;;;;;1.70;1.60;;;;;;;;;;5013919;28;20478;-57
2022/07/05 10:20:39;;;;;;;1.80;1.70;;;;;;;;;;5013804;28;20455;-57
2022/07/05 10:23:05;;;;;;;4.50;1.90;;;;;;;;;;5014594;28;20421;-55
2022/07/05 10:25:32;;;;;;;1.90;1.80;;;;;;;;;;5013992;28;20422;-55
2022/07/05 10:27:58;;;;;;;5.93;2.73;;;;;;;;;;5014035;28;20509;-57
2022/07/05 10:30:25;;;;;;;17.60;4.30;;;;;;;;;;5013411;28;20831;-56
2022/07/05 10:32:51;;;;;;;4.37;1.83;;;;;;;;;;5013814;28;20434;-55
2022/07/05 10:35:18;;;;;;;1.37;1.27;;;;;;;;;;5013812;28;20404;-57
2022/07/05 10:37:44;;;;;;;1.40;1.30;;;;;;;;;;5013567;28;20462;-56
2022/07/05 10:40:11;;;;;;;1.30;1.20;;;;;;;;;;5013508;28;20459;-56
2022/07/05 10:42:39;;;;;;;2.63;1.80;;;;;;;;;;5013632;28;20449;-57
2022/07/05 10:45:24;;;;;;;2.33;2.00;;;;;;;;;;5013503;28;20418;-55
2022/07/05 10:48:09;;;;;;;5.50;2.17;;;;;;;;;;5012827;28;20792;-57
2022/07/05 10:50:45;;;;;;;8.83;2.10;;;;;;;;;;5013514;28;20407;-55
2022/07/05 10:53:12;;;;;;;3.20;2.30;;;;;;;;;;5013613;28;20422;-55
2022/07/05 10:55:48;;;;;;;6.27;2.57;;;;;;;;;;5013442;28;20403;-55
2022/07/05 10:58:19;;;;;;;4.80;2.40;;;;;;;;;;5013099;28;20974;-57
2022/07/05 11:00:46;;;;;;;7.30;1.93;;;;;;;;;;5013047;28;20466;-56
2022/07/05 11:03:30;;;;;;;2.47;2.10;;;;;;;;;;5013332;28;20425;-55
2022/07/05 11:05:56;;;;;;;1.50;1.40;;;;;;;;;;5013866;28;20454;-58
2022/07/05 11:08:22;;;;;;;1.77;1.50;;;;;;;;;;5013175;28;20669;-56
2022/07/05 11:11:07;;;;;;;4.83;2.10;;;;;;;;;;5012767;28;20419;-55
2022/07/05 11:13:36;;;;;;;6.50;2.03;;;;;;;;;;5013114;28;20410;-56
2022/07/05 11:16:22;;;;;;;1.80;1.70;;;;;;;;;;5012212;28;20419;-56
2022/07/05 11:18:49;;;;;;;1.60;1.50;;;;;;;;;;5013097;28;20493;-56
2022/07/05 11:21:18;;;;;;;2.20;1.30;;;;;;;;;;5012523;28;20455;-55
2022/07/05 11:23:44;;;;;;;2.13;1.20;;;;;;;;;;5013091;28;20446;-56
2022/07/05 11:26:12;;;;;;;2.20;1.37;;;;;;;;;;5012615;28;20422;-56
2022/07/05 11:28:45;;;;;;;3.53;2.23;;;;;;;;;;5012701;28;20470;-56
2022/07/05 11:31:11;;;;;;;5.13;4.60;;;;;;;;;;5011550;28;20423;-56
2022/07/05 11:33:39;;;;;;;3.37;2.77;;;;;;;;;;5012102;28;20447;-55
2022/07/05 11:36:07;;;;;;;2.90;2.00;;;;;;;;;;5012731;28;20438;-57
2022/07/05 11:38:33;;;;;;;1.37;1.27;;;;;;;;;;5011330;28;20450;-57
2022/07/05 11:41:12;;;;;;;2.27;1.80;;;;;;;;;;4992161;28;20464;-57
2022/07/05 11:43:38;;;;;;;5.17;1.53;;;;;;;;;;4992083;28;20411;-56
2022/07/05 11:46:04;;;;;;;5.73;1.60;;;;;;;;;;4993267;28;20403;-56
2022/07/05 11:48:30;;;;;;;1.83;1.43;;;;;;;;;;4993444;28;20783;-55
2022/07/05 11:50:57;;;;;;;2.10;1.40;;;;;;;;;;4992814;28;20408;-55
2022/07/05 11:53:26;;;;;;;1.50;1.40;;;;;;;;;;4993122;28;20487;-56
2022/07/05 11:55:59;;;;;;;1.23;1.13;;;;;;;;;;4993186;28;20904;-56
2022/07/05 11:58:32;;;;;;;2.20;1.60;;;;;;;;;;4992742;28;20428;-55
2022/07/05 12:00:58;;;;;;;2.50;1.97;;;;;;;;;;4992507;28;20546;-56
2022/07/05 12:03:25;;;;;;;6.30;1.40;;;;;;;;;;4993077;28;20412;-56
2022/07/05 12:05:52;;;;;;;1.50;1.40;;;;;;;;;;4993082;28;20503;-56
2022/07/05 12:08:22;;;;;;;1.73;1.57;;;;;;;;;;4992604;28;20812;-56
2022/07/05 12:13:43;;;;;;;2.83;1.30;;;;;;;;;;4992726;28;20492;-58
2022/07/05 12:16:09;;;;;;;2.13;1.50;;;;;;;;;;4992800;28;20391;-55
2022/07/05 12:18:51;;;;;;;1.50;1.40;;;;;;;;;;4992693;28;20428;-55
2022/07/05 12:21:20;;;;;;;5.20;1.37;;;;;;;;;;4992235;28;20451;-58
2022/07/05 12:23:46;;;;;;;1.50;1.40;;;;;;;;;;4992500;28;20405;-56
2022/07/05 12:26:12;;;;;;;5.83;1.60;;;;;;;;;;4992506;28;20404;-57
2022/07/05 12:28:39;;;;;;;5.20;2.50;;;;;;;;;;4992283;28;20404;-56
2022/07/05 12:31:24;;;;;;;2.10;1.90;;;;;;;;;;4992200;28;20407;-56
2022/07/05 12:33:51;;;;;;;4.63;1.70;;;;;;;;;;4992501;28;20499;-57
2022/07/05 12:36:18;;;;;;;1.67;1.40;;;;;;;;;;4992133;28;20411;-56
2022/07/05 12:38:44;;;;;;;1.90;1.40;;;;;;;;;;4992306;28;20804;-56
2022/07/05 12:41:10;;;;;;;1.60;1.50;;;;;;;;;;4992041;28;20813;-55
2022/07/05 12:43:55;;;;;;;4.97;1.70;;;;;;;;;;4993554;28;20400;-58
2022/07/05 12:46:36;;;;;;;1.70;1.60;;;;;;;;;;4994810;28;20914;-59
2022/07/05 12:49:02;;;;;;;2.20;1.50;;;;;;;;;;4994943;28;20411;-59
2022/07/05 12:51:34;;;;;;;1.63;1.53;;;;;;;;;;4994275;28;20413;-59
2022/07/05 12:59:34;;;;;;;3.73;1.97;;;;;;;;;;4993904;28;20434;-58
2022/07/05 13:02:00;;;;;;;2.70;1.47;;;;;;;;;;4994195;28;20404;-59
2022/07/05 13:04:26;;;;;;;6.30;1.90;;;;;;;;;;4993520;28;20919;-59
2022/07/05 13:06:56;;;;;;;3.30;1.90;;;;;;;;;;4993335;28;20428;-59
2022/07/05 13:09:28;;;;;;;1.60;1.50;;;;;;;;;;4993175;28;20703;-59
2022/07/05 13:12:07;;;;;;;1.77;1.60;;;;;;;;;;4991881;28;20416;-59
2022/07/05 13:14:33;;;;;;;2.57;1.40;;;;;;;;;;4992079;28;20438;-59
2022/07/05 13:16:59;;;;;;;2.50;2.30;;;;;;;;;;4992154;28;20523;-59
2022/07/05 13:19:25;;;;;;;3.90;1.83;;;;;;;;;;4993359;28;20512;-59
2022/07/05 13:21:50;;;;;;;1.50;1.40;;;;;;;;;;4994104;28;20510;-59
2022/07/05 13:24:16;;;;;;;1.80;1.70;;;;;;;;;;4994137;28;20900;-59
2022/07/05 13:26:43;;;;;;;2.20;1.27;;;;;;;;;;4994337;28;20475;-59
2022/07/05 13:29:09;;;;;;;3.07;1.97;;;;;;;;;;4993937;28;20404;-59
2022/07/05 13:31:35;;;;;;;2.83;2.53;;;;;;;;;;4994328;28;20955;-59
2022/07/05 13:34:00;;;;;;;2.10;1.90;;;;;;;;;;4994467;28;20400;-59
2022/07/05 13:36:27;;;;;;;2.50;1.30;;;;;;;;;;4994024;28;20474;-60
2022/07/05 13:38:53;;;;;;;3.30;1.83;;;;;;;;;;4993669;28;20438;-59
2022/07/05 13:41:19;;;;;;;2.53;1.80;;;;;;;;;;4995565;28;20883;-59
2022/07/05 13:43:45;;;;;;;1.50;1.40;;;;;;;;;;4996021;28;20408;-58
2022/07/05 13:46:12;;;;;;;1.60;1.50;;;;;;;;;;4995647;28;20454;-59
2022/07/05 13:48:38;;;;;;;2.33;1.60;;;;;;;;;;4995416;28;20410;-59
2022/07/05 13:51:04;;;;;;;1.60;1.30;;;;;;;;;;4995185;28;20411;-59
2022/07/05 13:53:30;;;;;;;2.30;1.30;;;;;;;;;;4995239;28;20412;-60
2022/07/05 13:55:56;;;;;;;1.37;1.00;;;;;;;;;;4995311;28;20411;-59
2022/07/05 13:58:22;;;;;;;2.40;1.40;;;;;;;;;;4995254;28;20476;-59
2022/07/05 14:00:48;;;;;;;2.30;1.33;;;;;;;;;;4994839;28;20455;-59
2022/07/05 14:03:15;;;;;;;2.00;1.40;;;;;;;;;;4995439;28;20399;-59
2022/07/05 14:05:42;;;;;;;1.40;1.10;;;;;;;;;;4995484;28;20403;-59
2022/07/05 14:08:07;;;;;;;2.40;1.67;;;;;;;;;;4995457;28;21000;-59
2022/07/05 14:10:34;;;;;;;2.73;1.70;;;;;;;;;;4995331;28;20435;-59
2022/07/05 14:12:59;;;;;;;1.77;1.37;;;;;;;;;;4996181;28;20495;-59
2022/07/05 14:15:25;;;;;;;1.60;1.43;;;;;;;;;;4995321;28;20440;-59
2022/07/05 14:17:51;;;;;;;2.30;1.73;;;;;;;;;;4995085;28;20486;-58
2022/07/05 14:20:17;;;;;;;1.57;1.30;;;;;;;;;;4994700;28;20459;-59
2022/07/05 14:22:43;;;;;;;2.37;1.80;;;;;;;;;;4995593;28;20404;-59
2022/07/05 14:25:09;;;;;;;4.20;1.70;;;;;;;;;;4995692;28;20475;-59
2022/07/05 14:27:35;;;;;;;1.40;1.30;;;;;;;;;;4996177;28;20423;-59
2022/07/05 14:30:02;;;;;;;1.63;1.53;;;;;;;;;;5015916;28;20408;-59
2022/07/05 14:32:28;;;;;;;1.90;1.80;;;;;;;;;;5016480;28;20414;-59
2022/07/05 14:34:54;;;;;;;2.53;1.77;;;;;;;;;;5016537;28;20416;-59
2022/07/05 14:37:22;;;;;;;1.60;1.50;;;;;;;;;;5016620;28;20537;-59
2022/07/05 14:39:49;;;;;;;1.80;1.70;;;;;;;;;;5016596;28;20562;-59
2022/07/05 14:42:15;;;;;;;2.53;1.83;;;;;;;;;;5016402;28;20883;-59
2022/07/05 14:44:41;;;;;;;1.60;1.50;;;;;;;;;;5016189;28;20403;-59
2022/07/05 14:47:07;;;;;;;2.97;2.53;;;;;;;;;;5015914;28;20419;-59
2022/07/05 14:49:33;;;;;;;3.97;1.90;;;;;;;;;;5016648;28;20403;-59
2022/07/05 14:51:59;;;;;;;1.90;1.80;;;;;;;;;;5016606;28;20914;-59
2022/07/05 14:54:25;;;;;;;2.13;2.00;;;;;;;;;;5016047;28;20395;-59
2022/07/05 14:56:51;;;;;;;7.23;1.60;;;;;;;;;;5015262;28;20423;-58
2022/07/05 14:59:17;;;;;;;4.57;1.80;;;;;;;;;;5018200;28;20417;-59